Time;durP1;ratioP1;P1;durP2;ratioP2;P2;SDS_P1;SDS_P2;PMS_P1;PMS_P2;Temp;Humidity;BMP_temperature;BMP_pressure;BME280_temperature;BME280_humidity;BME280_pressure;Samples;Min_cycle;Max_cycle;Signal;HPM_P1;HPM_P2
2021/04/10 00:01:42;;;;;;;60.77;20.87;;;5.80;90.20;;;;;;4956671;29;20222;-89
2021/04/10 00:04:12;;;;;;;101.47;31.20;;;5.80;90.40;;;;;;4957813;28;20183;-87
2021/04/10 00:06:38;;;;;;;15.07;7.60;;;5.70;90.50;;;;;;4956946;29;20278;-88
2021/04/10 00:09:05;;;;;;;24.60;10.97;;;5.80;90.40;;;;;;4956268;28;20703;-87
2021/04/10 00:11:32;;;;;;;80.57;25.60;;;5.70;91.00;;;;;;4957987;28;20183;-91
2021/04/10 00:13:58;;;;;;;98.93;30.83;;;5.70;90.40;;;;;;4957735;28;20179;-88
2021/04/10 00:16:23;;;;;;;12.23;6.33;;;5.70;90.60;;;;;;4958187;29;20748;-88
2021/04/10 00:18:49;;;;;;;46.20;17.90;;;5.70;90.80;;;;;;4940521;29;20587;-89
2021/04/10 00:21:14;;;;;;;64.60;23.90;;;5.80;89.90;;;;;;4956103;29;20743;-89
2021/04/10 00:23:44;;;;;;;26.37;13.00;;;5.80;90.30;;;;;;4956455;29;20219;-89
2021/04/10 00:26:13;;;;;;;20.90;12.40;;;5.70;90.20;;;;;;4956484;28;20186;-89
2021/04/10 00:28:40;;;;;;;90.47;30.43;;;5.70;90.50;;;;;;4940354;29;20574;-89
2021/04/10 00:31:06;;;;;;;179.47;51.30;;;5.70;91.00;;;;;;4956934;28;20689;-89
2021/04/10 00:33:36;;;;;;;97.63;34.53;;;5.70;90.70;;;;;;4956046;29;20214;-88
2021/04/10 00:36:03;;;;;;;117.40;37.53;;;5.60;91.20;;;;;;4956176;28;20179;-87
2021/04/10 00:38:31;;;;;;;19.83;7.80;;;5.60;90.90;;;;;;4957225;29;20175;-88
2021/04/10 00:40:58;;;;;;;100.00;28.83;;;5.60;90.50;;;;;;4956896;28;20227;-86
2021/04/10 00:43:24;;;;;;;131.50;38.13;;;5.60;91.20;;;;;;4940555;29;20191;-88
2021/04/10 00:45:50;;;;;;;46.20;18.07;;;5.60;91.50;;;;;;4955456;28;20179;-88
2021/04/10 00:48:16;;;;;;;107.27;35.10;;;5.60;91.50;;;;;;4956811;28;20590;-88
2021/04/10 00:50:42;;;;;;;36.40;15.00;;;5.60;91.60;;;;;;4957088;28;20187;-89
2021/04/10 00:53:08;;;;;;;53.90;19.20;;;5.60;91.60;;;;;;4956522;29;20668;-89
2021/04/10 00:55:35;;;;;;;50.53;18.17;;;5.50;91.50;;;;;;4939824;29;20179;-89
2021/04/10 00:58:01;;;;;;;49.93;18.03;;;5.50;91.20;;;;;;4955560;29;20190;-88
2021/04/10 01:00:30;;;;;;;24.93;12.63;;;5.60;91.50;;;;;;4955670;28;20207;-91
2021/04/10 01:02:56;;;;;;;18.83;10.83;;;6.80;92.20;;;;;;4956740;29;20593;-88
2021/04/10 01:05:21;;;;;;;66.37;25.77;;;5.50;91.40;;;;;;4955568;28;20238;-89
2021/04/10 01:07:48;;;;;;;111.57;33.87;;;5.50;91.20;;;;;;4955816;29;20190;-88
2021/04/10 01:10:15;;;;;;;63.90;25.67;;;5.50;91.50;;;;;;4939362;29;20712;-89
2021/04/10 01:13:16;;;;;;;79.03;25.00;;;5.50;91.30;;;;;;4939752;29;20182;-89
2021/04/10 01:15:59;;;;;;;72.23;25.17;;;5.50;91.00;;;;;;4956209;28;20183;-89
2021/04/10 01:18:33;;;;;;;47.30;15.90;;;5.50;91.00;;;;;;4956427;28;20552;-90
2021/04/10 01:21:17;;;;;;;34.90;15.87;;;5.50;91.20;;;;;;4955467;29;20209;-89
2021/04/10 01:24:20;;;;;;;92.73;29.30;;;5.50;90.50;;;;;;4956872;28;20652;-89
2021/04/10 01:27:22;;;;;;;48.17;19.43;;;5.40;91.10;;;;;;4954851;29;20182;-89
2021/04/10 01:29:52;;;;;;;36.87;13.13;;;5.40;90.90;;;;;;4958017;28;20237;-89
2021/04/10 01:32:19;;;;;;;47.13;19.63;;;5.40;91.20;;;;;;4955912;28;20210;-88
2021/04/10 01:34:54;;;;;;;14.20;8.60;;;5.30;91.20;;;;;;4956667;28;20660;-89
2021/04/10 01:37:26;;;;;;;18.20;8.50;;;5.30;91.20;;;;;;4956743;28;20233;-88
2021/04/10 01:39:52;;;;;;;15.23;6.33;;;5.30;90.90;;;;;;4956573;28;20179;-88
2021/04/10 01:42:23;;;;;;;26.00;9.57;;;5.30;91.00;;;;;;4955737;28;20219;-89
2021/04/10 01:44:51;;;;;;;17.97;7.50;;;5.30;91.00;;;;;;4954398;29;20266;-86
2021/04/10 01:47:17;;;;;;;76.53;22.93;;;5.30;91.10;;;;;;4954676;29;20194;-88
2021/04/10 01:49:45;;;;;;;114.27;35.90;;;5.20;91.50;;;;;;4955295;29;20179;-87
2021/04/10 01:52:12;;;;;;;66.80;21.13;;;5.20;91.60;;;;;;4954747;29;20274;-89
2021/04/10 01:54:38;;;;;;;83.60;27.70;;;5.10;91.80;;;;;;4955261;29;20183;-87
2021/04/10 01:57:05;;;;;;;103.33;33.87;;;5.10;91.50;;;;;;4938891;29;20215;-89
2021/04/10 01:59:33;;;;;;;57.43;19.73;;;5.00;91.80;;;;;;4956231;28;20186;-88
2021/04/10 02:01:59;;;;;;;53.73;21.27;;;5.00;91.90;;;;;;4954681;29;20293;-87
2021/04/10 02:04:26;;;;;;;20.27;12.30;;;5.00;92.10;;;;;;4954432;29;20582;-86
2021/04/10 02:06:53;;;;;;;9.53;6.07;;;5.00;92.10;;;;;;4956333;28;20278;-88
2021/04/10 02:09:21;;;;;;;19.77;10.17;;;5.00;92.50;;;;;;4953618;28;20242;-88
2021/04/10 02:11:51;;;;;;;17.50;10.47;;;4.90;92.50;;;;;;4957362;28;20186;-89
2021/04/10 02:14:20;;;;;;;16.13;11.00;;;4.90;92.60;;;;;;4955739;28;20178;-89
2021/04/10 02:16:46;;;;;;;22.97;8.60;;;4.90;92.20;;;;;;4954861;29;20187;-89
2021/04/10 02:19:12;;;;;;;44.43;15.30;;;4.90;92.20;;;;;;4955734;28;20242;-89
2021/04/10 02:21:39;;;;;;;21.97;9.63;;;4.90;91.90;;;;;;4956033;29;20214;-90
2021/04/10 02:24:08;;;;;;;42.10;15.87;;;4.90;92.40;;;;;;4955881;28;20182;-90
2021/04/10 02:26:35;;;;;;;12.83;6.10;;;4.90;92.10;;;;;;4954751;28;20187;-90
2021/04/10 02:29:01;;;;;;;50.67;17.90;;;4.90;91.80;;;;;;4955019;28;20180;-89
2021/04/10 02:31:31;;;;;;;17.47;8.40;;;4.90;92.20;;;;;;4954607;29;20211;-89
2021/04/10 02:34:05;;;;;;;25.60;11.30;;;4.90;92.20;;;;;;4954785;29;20176;-90
2021/04/10 02:36:33;;;;;;;22.13;9.50;;;4.90;91.50;;;;;;4955808;28;20176;-89
2021/04/10 02:38:59;;;;;;;10.10;6.30;;;4.90;91.80;;;;;;4955857;28;20179;-89
2021/04/10 02:41:27;;;;;;;9.00;5.20;;;4.90;91.80;;;;;;4938252;29;20232;-90
2021/04/10 02:43:58;;;;;;;13.30;7.07;;;4.90;91.90;;;;;;4955738;28;20210;-89
2021/04/10 02:46:27;;;;;;;13.03;7.57;;;4.90;91.70;;;;;;4955512;28;20172;-90
2021/04/10 02:49:00;;;;;;;12.97;7.27;;;4.80;92.40;;;;;;4956285;28;20640;-90
2021/04/10 02:51:35;;;;;;;25.33;11.40;;;4.80;91.90;;;;;;4953379;29;20552;-89
2021/04/10 02:54:03;;;;;;;25.83;8.73;;;4.80;92.10;;;;;;4956718;28;20190;-89
2021/04/10 02:56:33;;;;;;;28.43;10.97;;;4.80;92.20;;;;;;4955235;28;20176;-90
2021/04/10 02:59:00;;;;;;;27.37;10.83;;;4.80;92.10;;;;;;4955798;28;20226;-90
2021/04/10 03:01:30;;;;;;;20.03;9.17;;;4.90;91.40;;;;;;4954092;29;20831;-90
2021/04/10 03:03:56;;;;;;;27.87;11.10;;;4.90;91.50;;;;;;4955815;28;20190;-90
2021/04/10 03:06:23;;;;;;;13.10;5.50;;;5.00;91.50;;;;;;4954496;28;20183;-89
2021/04/10 03:08:49;;;;;;;6.03;4.20;;;5.00;91.50;;;;;;4955071;28;20737;-89
2021/04/10 03:11:16;;;;;;;10.47;5.37;;;5.10;91.30;;;;;;4959192;28;20644;-90
2021/04/10 03:13:45;;;;;;;8.53;5.07;;;4.90;90.60;;;;;;4957574;29;20189;-89
2021/04/10 03:16:11;;;;;;;11.77;5.83;;;5.00;91.20;;;;;;4957402;28;20277;-90
2021/04/10 03:18:38;;;;;;;11.97;5.10;;;5.00;91.10;;;;;;4941508;29;20633;-89
2021/04/10 03:21:05;;;;;;;11.37;5.37;;;5.00;90.60;;;;;;4956980;29;20270;-90
2021/04/10 03:23:31;;;;;;;12.70;5.37;;;5.00;90.20;;;;;;4958613;28;20184;-90
2021/04/10 03:26:01;;;;;;;37.93;13.50;;;5.00;90.20;;;;;;4957434;28;20187;-90
2021/04/10 03:28:28;;;;;;;36.97;15.50;;;5.00;89.50;;;;;;4958619;28;20258;-89
2021/04/10 03:30:56;;;;;;;30.33;12.33;;;5.00;89.70;;;;;;4959040;28;20184;-90
2021/04/10 03:33:22;;;;;;;34.27;14.10;;;5.00;89.10;;;;;;4958611;28;20183;-89
2021/04/10 03:35:48;;;;;;;20.10;9.70;;;5.00;89.20;;;;;;4925952;29;20194;-90
2021/04/10 03:38:14;;;;;;;15.80;7.77;;;5.00;89.70;;;;;;4958222;28;20183;-90
2021/04/10 03:40:40;;;;;;;7.87;4.40;;;5.00;89.40;;;;;;4957444;28;20214;-91
2021/04/10 03:43:06;;;;;;;15.87;10.27;;;5.00;89.10;;;;;;4959940;28;20195;-90
2021/04/10 03:45:32;;;;;;;23.60;10.63;;;5.00;89.40;;;;;;4958797;29;20656;-90
2021/04/10 03:47:57;;;;;;;34.37;19.37;;;4.90;89.50;;;;;;4957172;28;20195;-90
2021/04/10 03:50:23;;;;;;;31.43;15.70;;;5.00;89.20;;;;;;4956790;29;20194;-89
2021/04/10 03:52:52;;;;;;;19.53;10.37;;;4.90;89.30;;;;;;4958022;29;20190;-89
2021/04/10 03:55:18;;;;;;;40.63;26.30;;;4.90;88.80;;;;;;4960393;28;20187;-90
2021/04/10 03:57:44;;;;;;;10.43;6.70;;;4.90;88.70;;;;;;4960941;28;20612;-89
2021/04/10 04:00:10;;;;;;;12.67;6.77;;;4.90;88.90;;;;;;4960109;28;20179;-90
2021/04/10 04:02:37;;;;;;;45.17;16.03;;;5.00;89.10;;;;;;4975527;28;20250;-89
2021/04/10 04:05:03;;;;;;;25.70;10.93;;;5.00;88.60;;;;;;4981189;28;20168;-88
2021/04/10 04:07:29;;;;;;;26.80;11.10;;;5.00;88.40;;;;;;4978950;28;20195;-89
2021/04/10 04:09:54;;;;;;;23.80;10.27;;;5.10;88.90;;;;;;4966195;29;20245;-89
2021/04/10 04:12:20;;;;;;;6.93;4.67;;;5.20;87.70;;;;;;4950077;29;20195;-89
2021/04/10 04:14:46;;;;;;;10.70;5.13;;;5.30;86.70;;;;;;4939732;29;20555;-89
2021/04/10 04:17:11;;;;;;;10.03;5.10;;;5.30;86.40;;;;;;4939904;29;20206;-89
2021/04/10 04:19:37;;;;;;;11.93;6.47;;;5.40;85.00;;;;;;4923661;29;20183;-89
2021/04/10 04:22:03;;;;;;;11.13;5.10;;;5.40;85.10;;;;;;4956242;29;20571;-90
2021/04/10 04:24:30;;;;;;;108.13;36.33;;;5.40;85.00;;;;;;4956763;28;20257;-89
2021/04/10 04:26:56;;;;;;;63.33;21.77;;;5.50;83.90;;;;;;4956805;28;20187;-89
2021/04/10 04:29:22;;;;;;;111.67;33.43;;;5.50;84.10;;;;;;4939503;29;20191;-90
2021/04/10 04:31:48;;;;;;;59.30;20.17;;;5.50;82.60;;;;;;4955336;29;20234;-88
2021/04/10 04:34:13;;;;;;;58.70;18.83;;;5.60;81.80;;;;;;4954750;28;20222;-91
2021/04/10 04:36:39;;;;;;;26.87;10.90;;;5.60;81.50;;;;;;4936926;28;20646;-90
2021/04/10 04:39:05;;;;;;;12.03;7.17;;;5.60;82.80;;;;;;4954514;28;20191;-90
2021/04/10 04:41:32;;;;;;;5.87;3.90;;;5.60;81.40;;;;;;4950319;28;20310;-90
2021/04/10 04:43:58;;;;;;;10.90;5.83;;;5.60;80.80;;;;;;4951225;28;20198;-88
2021/04/10 04:46:24;;;;;;;9.07;5.10;;;5.70;79.90;;;;;;4950959;28;20237;-86
2021/04/10 04:48:49;;;;;;;9.30;5.23;;;5.60;80.20;;;;;;4956068;28;20660;-88
2021/04/10 04:51:18;;;;;;;9.50;5.00;;;5.60;80.40;;;;;;4951480;28;20191;-89
2021/04/10 04:53:44;;;;;;;11.37;4.73;;;5.70;80.30;;;;;;4929081;29;20210;-89
2021/04/10 04:56:09;;;;;;;10.93;4.80;;;5.70;80.40;;;;;;4935954;29;20207;-91
2021/04/10 04:58:35;;;;;;;6.63;4.37;;;5.70;80.00;;;;;;4940324;28;21419;-89
2021/04/10 05:01:01;;;;;;;8.03;4.20;;;5.70;78.20;;;;;;4949489;28;20211;-89
2021/04/10 05:03:26;;;;;;;9.30;4.23;;;5.70;78.50;;;;;;4950004;28;20198;-87
2021/04/10 05:05:52;;;;;;;9.47;5.30;;;5.80;78.40;;;;;;4942176;28;20205;-89
2021/04/10 05:08:17;;;;;;;8.37;4.60;;;5.90;78.10;;;;;;4945183;28;20340;-87
2021/04/10 05:10:43;;;;;;;7.07;3.80;;;5.90;79.10;;;;;;4945246;28;20211;-88
2021/04/10 05:13:09;;;;;;;13.83;6.73;;;6.10;76.70;;;;;;4943414;28;20239;-88
2021/04/10 05:15:34;;;;;;;9.40;5.27;;;6.30;78.70;;;;;;4949320;28;20458;-89
2021/04/10 05:18:00;;;;;;;10.70;5.63;;;6.40;78.00;;;;;;4944483;28;20192;-87
2021/04/10 05:20:25;;;;;;;11.20;4.57;;;6.40;77.00;;;;;;4935946;28;20195;-89
2021/04/10 05:22:55;;;;;;;9.23;5.73;;;6.50;76.20;;;;;;4944918;28;20184;-88
2021/04/10 05:25:21;;;;;;;11.80;4.97;;;6.60;74.40;;;;;;4936404;28;20215;-87
2021/04/10 05:27:51;;;;;;;9.70;4.43;;;6.70;74.80;;;;;;4948196;28;20274;-87
2021/04/10 05:30:18;;;;;;;12.37;5.27;;;6.90;73.40;;;;;;4953225;28;20183;-87
2021/04/10 05:32:44;;;;;;;10.97;5.17;;;6.90;73.10;;;;;;4953098;28;20187;-86
2021/04/10 05:35:10;;;;;;;13.10;4.43;;;7.00;71.80;;;;;;4949726;28;20180;-87
2021/04/10 05:37:37;;;;;;;11.43;4.80;;;7.00;70.90;;;;;;4951384;28;20187;-88
2021/04/10 05:40:06;;;;;;;8.10;4.63;;;7.10;70.50;;;;;;4953323;28;20222;-88
2021/04/10 05:42:32;;;;;;;7.63;4.70;;;7.20;70.20;;;;;;4949183;28;20758;-89
2021/04/10 05:44:58;;;;;;;10.43;4.63;;;7.20;69.70;;;;;;4956681;28;20675;-88
2021/04/10 05:47:24;;;;;;;8.53;4.57;;;7.30;70.00;;;;;;4954450;28;20214;-89
2021/04/10 05:49:50;;;;;;;10.33;4.80;;;7.40;70.30;;;;;;4952513;28;20246;-87
2021/04/10 05:52:16;;;;;;;12.00;4.93;;;7.50;69.40;;;;;;4937311;29;20210;-88
2021/04/10 05:54:41;;;;;;;8.83;4.80;;;7.50;68.80;;;;;;4953268;28;20187;-88
2021/04/10 05:57:07;;;;;;;8.90;5.60;;;7.70;68.10;;;;;;4957959;28;20195;-89
2021/04/10 05:59:33;;;;;;;11.23;5.40;;;7.80;69.40;;;;;;4940909;28;20230;-90
2021/04/10 06:01:58;;;;;;;12.07;5.80;;;7.90;68.40;;;;;;4952097;28;20215;-89
2021/04/10 06:04:24;;;;;;;8.97;4.80;;;8.00;68.00;;;;;;4955439;28;20199;-90
2021/04/10 06:06:50;;;;;;;9.03;4.97;;;8.10;67.10;;;;;;4940272;28;20186;-89
2021/04/10 06:09:16;;;;;;;9.73;4.43;;;8.20;66.90;;;;;;4953919;28;20246;-88
2021/04/10 06:11:41;;;;;;;11.40;4.87;;;8.20;64.80;;;;;;4953892;28;20695;-89
2021/04/10 06:14:07;;;;;;;7.97;4.43;;;8.30;64.70;;;;;;4952655;28;20529;-90
2021/04/10 06:16:33;;;;;;;8.60;5.30;;;8.40;64.00;;;;;;4953070;28;20238;-89
2021/04/10 06:18:58;;;;;;;10.90;4.40;;;8.50;64.40;;;;;;4954116;28;20270;-89
2021/04/10 06:21:24;;;;;;;7.90;3.97;;;8.60;62.90;;;;;;4953644;28;20273;-89
2021/04/10 06:23:49;;;;;;;8.57;4.23;;;8.60;63.10;;;;;;4936662;29;20575;-88
2021/04/10 06:26:15;;;;;;;9.67;4.97;;;8.70;62.70;;;;;;4953717;28;20668;-89
2021/04/10 06:28:41;;;;;;;9.57;4.80;;;8.70;63.40;;;;;;4952409;28;20219;-89
2021/04/10 06:31:07;;;;;;;7.83;4.30;;;8.80;62.50;;;;;;4952418;28;20644;-89
2021/04/10 06:33:32;;;;;;;6.90;4.70;;;8.80;62.30;;;;;;4948228;28;20685;-89
2021/04/10 06:35:58;;;;;;;8.37;4.67;;;8.80;61.50;;;;;;4953327;28;20187;-89
2021/04/10 06:38:24;;;;;;;8.83;4.27;;;8.80;61.70;;;;;;4948880;28;20197;-90
2021/04/10 06:40:49;;;;;;;8.60;4.20;;;8.90;62.00;;;;;;4947302;28;20206;-90
2021/04/10 06:43:16;;;;;;;8.90;4.87;;;8.90;61.50;;;;;;4960008;28;20226;-88
2021/04/10 06:45:42;;;;;;;10.20;4.57;;;9.00;61.90;;;;;;4955393;28;20183;-91
2021/04/10 06:48:13;;;;;;;8.50;4.80;;;9.10;60.60;;;;;;4957531;28;20194;-94
2021/04/10 06:50:43;;;;;;;10.20;5.27;;;9.10;62.00;;;;;;4950619;28;20702;-90
2021/04/10 06:53:14;;;;;;;14.87;4.97;;;9.30;61.50;;;;;;4957343;28;20768;-90
2021/04/10 06:55:46;;;;;;;8.13;4.17;;;9.40;62.30;;;;;;4947115;28;20184;-89
2021/04/10 06:58:20;;;;;;;7.67;4.40;;;9.60;60.20;;;;;;4952264;28;20180;-91
2021/04/10 07:00:47;;;;;;;10.20;4.97;;;9.60;60.50;;;;;;4955035;28;20213;-93
2021/04/10 07:03:13;;;;;;;8.73;4.83;;;9.70;60.30;;;;;;4946514;28;20246;-91
2021/04/10 07:05:39;;;;;;;6.87;4.70;;;9.70;59.80;;;;;;4955150;28;20183;-89
2021/04/10 07:08:09;;;;;;;9.27;4.73;;;9.80;59.80;;;;;;4939655;28;20192;-91
2021/04/10 07:10:35;;;;;;;9.40;5.30;;;9.80;60.20;;;;;;4956858;28;20273;-90
2021/04/10 07:13:02;;;;;;;9.60;4.77;;;9.90;60.20;;;;;;4941397;28;20215;-91
2021/04/10 07:15:28;;;;;;;14.30;5.33;;;10.00;58.40;;;;;;4950061;28;20184;-90
2021/04/10 07:17:54;;;;;;;9.37;4.97;;;10.10;58.40;;;;;;4944366;28;20270;-89
2021/04/10 07:20:28;;;;;;;11.50;5.30;;;10.10;58.30;;;;;;4940949;28;20203;-90
2021/04/10 07:23:04;;;;;;;9.80;4.57;;;10.10;57.20;;;;;;4956883;28;20191;-92
2021/04/10 07:25:33;;;;;;;6.20;4.47;;;10.10;57.50;;;;;;4956662;29;20193;-92
2021/04/10 07:28:27;;;;;;;9.63;4.23;;;10.20;58.00;;;;;;4957101;28;20197;-92
2021/04/10 07:31:02;;;;;;;9.60;4.57;;;10.30;57.40;;;;;;4948698;28;20190;-91
2021/04/10 07:33:30;;;;;;;9.67;4.20;;;10.30;57.50;;;;;;4961400;28;20183;-91
2021/04/10 07:35:57;;;;;;;6.77;4.13;;;10.30;57.20;;;;;;4953830;28;20208;-91
2021/04/10 07:38:30;;;;;;;5.87;3.83;;;10.40;57.10;;;;;;4938849;29;20274;-90
2021/04/10 07:40:59;;;;;;;10.50;4.57;;;10.60;56.90;;;;;;4943740;29;20211;-91
2021/04/10 07:43:28;;;;;;;9.80;4.90;;;10.70;57.30;;;;;;4957052;28;20202;-89
2021/04/10 07:46:10;;;;;;;7.73;4.90;;;10.70;56.90;;;;;;4955775;28;20172;-89
2021/04/10 07:48:36;;;;;;;7.27;4.30;;;10.70;56.90;;;;;;4955422;28;20652;-90
2021/04/10 07:51:02;;;;;;;9.77;4.77;;;10.80;57.50;;;;;;4954793;28;20207;-90
2021/04/10 07:53:29;;;;;;;10.23;4.50;;;11.00;57.60;;;;;;4963351;28;20517;-87
2021/04/10 07:55:57;;;;;;;11.60;4.50;;;11.10;56.80;;;;;;4963693;28;20187;-89
2021/04/10 07:58:28;;;;;;;8.03;4.30;;;11.20;56.60;;;;;;4946241;28;20237;-91
2021/04/10 08:01:14;;;;;;;8.53;4.43;;;11.20;56.30;;;;;;4957018;28;20616;-92
2021/04/10 08:03:49;;;;;;;10.10;5.10;;;11.40;56.80;;;;;;4958646;29;20191;-89
2021/04/10 08:06:17;;;;;;;13.20;4.70;;;11.50;56.90;;;;;;4956766;28;20194;-92
2021/04/10 08:08:55;;;;;;;8.17;4.70;;;11.70;56.80;;;;;;4953885;28;20793;-92
2021/04/10 08:11:39;;;;;;;10.73;4.97;;;11.90;56.70;;;;;;4973629;28;20228;-93
2021/04/10 08:14:14;;;;;;;9.45;4.43;;;12.10;55.90;;;;;;4959614;28;20194;-93
2021/04/10 08:16:40;;;;;;;7.68;4.18;;;12.10;55.50;;;;;;4959564;28;20183;-96
2021/04/10 08:19:07;;;;;;;12.20;4.50;;;12.00;55.60;;;;;;4956390;28;20222;-93
2021/04/10 08:21:32;;;;;;;9.52;5.00;;;12.00;55.40;;;;;;4962634;28;20214;-89
2021/04/10 08:24:03;;;;;;;8.88;4.55;;;12.10;56.20;;;;;;4956919;28;20706;-88
2021/04/10 08:26:29;;;;;;;7.88;4.40;;;12.20;55.30;;;;;;4953342;28;20194;-90
2021/04/10 08:28:55;;;;;;;10.43;4.57;;;12.20;55.00;;;;;;4954020;28;20195;-89
2021/04/10 08:31:21;;;;;;;8.30;4.60;;;12.10;55.20;;;;;;4937466;29;20432;-89
2021/04/10 08:33:47;;;;;;;7.97;4.80;;;12.20;55.40;;;;;;4954025;28;20668;-88
2021/04/10 08:36:14;;;;;;;8.43;4.78;;;12.30;55.10;;;;;;4952824;28;20661;-89
2021/04/10 08:38:42;;;;;;;14.00;6.03;;;12.50;55.60;;;;;;4955145;28;20664;-88
2021/04/10 08:41:10;;;;;;;12.43;5.05;;;12.70;56.10;;;;;;4949014;28;20210;-89
2021/04/10 08:43:44;;;;;;;11.20;4.85;;;12.90;54.60;;;;;;4954841;28;20206;-90
2021/04/10 08:46:11;;;;;;;8.52;4.78;;;13.10;54.50;;;;;;4945132;28;20195;-88
2021/04/10 08:48:37;;;;;;;10.88;5.57;;;13.20;54.30;;;;;;4944680;28;20327;-88
2021/04/10 08:51:07;;;;;;;8.63;4.60;;;13.30;54.70;;;;;;4940358;28;20188;-87
2021/04/10 08:53:39;;;;;;;8.63;4.07;;;13.30;53.90;;;;;;4952020;28;20187;-87
2021/04/10 08:56:07;;;;;;;10.02;4.70;;;13.40;54.10;;;;;;4950508;28;20194;-86
2021/04/10 08:58:35;;;;;;;9.15;4.82;;;13.40;53.20;;;;;;4957125;28;20186;-87
2021/04/10 09:01:06;;;;;;;8.73;5.18;;;13.40;54.70;;;;;;4939369;29;20703;-87
2021/04/10 09:03:48;;;;;;;8.85;4.60;;;13.60;52.90;;;;;;4964383;28;20191;-86
2021/04/10 09:06:22;;;;;;;7.95;4.95;;;13.60;53.00;;;;;;4951732;28;20249;-88
2021/04/10 09:08:49;;;;;;;9.10;4.57;;;13.60;52.70;;;;;;4940794;28;20344;-87
2021/04/10 09:11:22;;;;;;;9.15;4.72;;;13.60;53.50;;;;;;4952839;28;20195;-88
2021/04/10 09:13:49;;;;;;;13.95;4.60;;;13.80;53.00;;;;;;4942591;28;20190;-88
2021/04/10 09:16:38;;;;;;;9.77;4.93;;;13.90;54.40;;;;;;4956313;28;20188;-89
2021/04/10 09:19:20;;;;;;;10.20;4.70;;;14.10;52.20;;;;;;4948221;28;20191;-86
2021/04/10 09:21:58;;;;;;;11.57;5.05;;;14.00;52.30;;;;;;4960819;28;20215;-89
2021/04/10 09:24:45;;;;;;;9.25;4.80;;;14.30;54.80;;;;;;4975141;28;20182;-89
2021/04/10 09:27:19;;;;;;;7.63;4.28;;;14.40;51.20;;;;;;4950697;28;20179;-89
2021/04/10 09:30:04;;;;;;;7.38;4.32;;;14.50;51.60;;;;;;4948331;28;20202;-91
2021/04/10 09:32:31;;;;;;;6.63;4.35;;;14.70;51.30;;;;;;4946937;28;20184;-90
2021/04/10 09:35:00;;;;;;;9.60;4.38;;;14.90;50.40;;;;;;4952280;28;20552;-92
2021/04/10 09:37:26;;;;;;;14.35;6.07;;;14.80;50.40;;;;;;4954035;28;20179;-91
2021/04/10 09:40:09;;;;;;;7.35;4.22;;;15.00;51.70;;;;;;4953481;28;20183;-92
2021/04/10 09:45:30;;;;;;;8.93;4.80;;;15.10;50.20;;;;;;4954495;28;20245;-89
2021/04/10 09:48:15;;;;;;;10.85;4.82;;;15.20;49.20;;;;;;4951806;28;20567;-93
2021/04/10 09:50:42;;;;;;;10.40;4.55;;;15.20;49.30;;;;;;4952350;28;20297;-92
2021/04/10 09:53:12;;;;;;;6.95;3.85;;;15.30;50.10;;;;;;4954877;28;20211;-93
2021/04/10 09:55:42;;;;;;;11.15;4.68;;;15.30;48.10;;;;;;4955222;28;20218;-94
2021/04/10 09:58:09;;;;;;;7.38;4.00;;;15.20;49.70;;;;;;4950912;28;20186;-93
2021/04/10 10:00:54;;;;;;;10.82;4.80;;;15.30;49.10;;;;;;4952298;28;20596;-92
2021/04/10 10:03:24;;;;;;;9.93;5.28;;;15.50;50.50;;;;;;4952225;28;20183;-92
2021/04/10 10:05:54;;;;;;;8.55;4.25;;;16.10;49.30;;;;;;4955015;28;20195;-93
2021/04/10 10:08:27;;;;;;;11.18;5.15;;;16.00;47.70;;;;;;4952220;28;20179;-94
2021/04/10 10:10:56;;;;;;;12.38;4.88;;;16.10;48.70;;;;;;4954606;28;20283;-94
2021/04/10 10:13:33;;;;;;;9.35;4.30;;;16.30;47.80;;;;;;4951517;28;20179;-89
2021/04/10 10:15:59;;;;;;;8.18;4.50;;;16.10;46.30;;;;;;4953524;28;20182;-91
2021/04/10 10:18:26;;;;;;;12.75;4.70;;;16.00;47.40;;;;;;4948460;28;20183;-92
2021/04/10 10:21:05;;;;;;;9.13;4.45;;;15.90;46.60;;;;;;4949313;28;20215;-91
2021/04/10 10:23:57;;;;;;;8.90;4.88;;;15.80;46.90;;;;;;4949047;28;20234;-92
2021/04/10 10:26:36;;;;;;;6.85;4.25;;;15.90;49.00;;;;;;4955778;28;20612;-89
2021/04/10 10:29:08;;;;;;;7.20;4.10;;;16.20;47.40;;;;;;4956851;28;20189;-91
2021/04/10 10:31:41;;;;;;;9.63;4.80;;;16.00;46.20;;;;;;4956788;28;20191;-93
2021/04/10 10:34:11;;;;;;;9.70;4.78;;;16.10;47.10;;;;;;4956320;28;20183;-92
2021/04/10 10:36:39;;;;;;;12.70;5.10;;;16.40;47.80;;;;;;4946852;28;20202;-92
2021/04/10 10:39:24;;;;;;;10.57;4.70;;;16.80;46.10;;;;;;4954664;28;20776;-92
2021/04/10 10:41:50;;;;;;;15.13;5.85;;;16.70;46.20;;;;;;4956658;28;20282;-92
2021/04/10 10:44:18;;;;;;;7.88;4.50;;;17.00;48.60;;;;;;4955643;28;20644;-91
2021/04/10 10:46:44;;;;;;;6.88;3.70;;;17.20;44.70;;;;;;4956626;28;20613;-91
2021/04/10 10:49:11;;;;;;;8.48;4.07;;;17.00;45.20;;;;;;4957083;28;20175;-91
2021/04/10 10:51:38;;;;;;;7.72;4.78;;;16.80;44.80;;;;;;4956436;28;20679;-90
2021/04/10 10:54:04;;;;;;;13.73;4.40;;;16.50;45.00;;;;;;4958057;28;20183;-93
2021/04/10 10:56:32;;;;;;;8.65;4.35;;;16.50;45.70;;;;;;4955016;28;20250;-89
2021/04/10 10:59:00;;;;;;;7.10;3.88;;;16.60;46.90;;;;;;4955549;28;20195;-93
2021/04/10 11:01:41;;;;;;;11.05;4.55;;;17.10;48.30;;;;;;4950772;28;20214;-89
2021/04/10 11:04:17;;;;;;;10.25;4.38;;;17.60;47.40;;;;;;4957782;28;20179;-91
2021/04/10 11:06:58;;;;;;;12.57;5.05;;;17.90;45.60;;;;;;4953215;28;20275;-89
2021/04/10 11:09:30;;;;;;;6.13;4.15;;;19.50;46.50;;;;;;4953488;28;20321;-88
2021/04/10 11:12:13;;;;;;;7.85;4.20;;;18.30;45.20;;;;;;4947245;28;20195;-90
2021/04/10 11:14:43;;;;;;;11.52;4.38;;;18.50;46.20;;;;;;4943800;28;20187;-94
2021/04/10 11:17:10;;;;;;;9.50;4.45;;;18.70;45.30;;;;;;4951852;28;20195;-92
2021/04/10 11:19:45;;;;;;;7.63;4.15;;;18.80;44.70;;;;;;4940883;28;20187;-91
2021/04/10 11:22:17;;;;;;;10.38;4.07;;;18.80;43.80;;;;;;4954909;28;20310;-93
2021/04/10 11:24:49;;;;;;;12.05;4.60;;;19.00;45.10;;;;;;4949407;28;20203;-92
2021/04/10 11:27:23;;;;;;;9.57;4.28;;;18.80;45.10;;;;;;4954771;28;20295;-92
2021/04/10 11:30:00;;;;;;;8.20;4.10;;;18.80;44.30;;;;;;4951827;28;20197;-91
2021/04/10 11:32:39;;;;;;;11.02;4.63;;;19.00;44.30;;;;;;4953877;28;20686;-92
2021/04/10 11:35:20;;;;;;;7.30;4.38;;;19.10;44.20;;;;;;4954796;28;20191;-93
2021/04/10 11:37:50;;;;;;;7.72;4.82;;;19.10;43.50;;;;;;4944882;28;20208;-89
2021/04/10 11:40:30;;;;;;;8.55;4.88;;;19.10;44.20;;;;;;4944660;28;20192;-93
2021/04/10 11:42:59;;;;;;;11.05;4.43;;;19.20;43.30;;;;;;4945147;28;20812;-91
2021/04/10 11:45:43;;;;;;;6.53;3.67;;;19.00;44.00;;;;;;4946578;28;20556;-89
2021/04/10 11:48:17;;;;;;;6.45;3.67;;;19.10;43.10;;;;;;4954431;28;20179;-91
2021/04/10 11:50:49;;;;;;;6.80;4.32;;;19.00;43.60;;;;;;4947191;28;20602;-87
2021/04/10 11:53:22;;;;;;;9.98;4.78;;;19.10;43.70;;;;;;4953071;28;20191;-90
2021/04/10 11:55:49;;;;;;;6.45;3.72;;;19.20;41.90;;;;;;4952959;28;20553;-94
2021/04/10 11:58:36;;;;;;;10.63;4.68;;;19.10;42.50;;;;;;4937952;29;20566;-91
2021/04/10 12:01:13;;;;;;;7.38;4.25;;;19.20;42.70;;;;;;4955415;28;20207;-93
2021/04/10 12:04:00;;;;;;;11.27;4.47;;;19.10;41.60;;;;;;4949339;28;20183;-93
2021/04/10 12:06:40;;;;;;;9.48;4.35;;;19.30;41.60;;;;;;4955557;28;20241;-93
2021/04/10 12:09:10;;;;;;;7.93;3.97;;;19.40;42.00;;;;;;4954941;28;20294;-94
2021/04/10 12:11:38;;;;;;;7.60;3.53;;;19.20;40.80;;;;;;4970296;28;20183;-94
2021/04/10 12:14:09;;;;;;;9.00;4.00;;;18.80;40.60;;;;;;4953843;28;20238;-92
2021/04/10 12:16:36;;;;;;;6.53;3.47;;;18.80;41.50;;;;;;4948702;28;20184;-93
2021/04/10 12:19:03;;;;;;;6.40;3.40;;;18.80;41.00;;;;;;4954716;28;20195;-93
2021/04/10 12:21:29;;;;;;;5.68;3.67;;;18.50;40.60;;;;;;4948545;28;20218;-92
2021/04/10 12:23:54;;;;;;;7.47;3.60;;;18.60;41.00;;;;;;4965241;28;20203;-92
2021/04/10 12:26:20;;;;;;;7.05;4.07;;;18.80;41.00;;;;;;4936978;29;20775;-92
2021/04/10 12:28:46;;;;;;;10.75;3.75;;;19.00;40.80;;;;;;4950064;28;20258;-92
2021/04/10 12:31:11;;;;;;;9.75;4.10;;;19.10;41.50;;;;;;4937474;29;20199;-94
2021/04/10 12:33:39;;;;;;;8.35;3.95;;;19.50;41.20;;;;;;4954342;28;20334;-90
2021/04/10 12:36:05;;;;;;;9.07;4.38;;;19.80;40.60;;;;;;4935521;29;20187;-93
2021/04/10 12:38:31;;;;;;;6.85;3.85;;;20.10;41.60;;;;;;4951209;28;20195;-93
2021/04/10 12:40:56;;;;;;;6.93;4.13;;;20.50;40.40;;;;;;4955357;28;20307;-91
2021/04/10 12:43:22;;;;;;;5.68;3.60;;;20.70;40.70;;;;;;4934246;29;20191;-94
2021/04/10 12:45:48;;;;;;;7.85;3.63;;;20.20;38.10;;;;;;4952694;28;20234;-94
2021/04/10 12:48:13;;;;;;;6.35;3.20;;;19.70;38.70;;;;;;4932826;29;20194;-90
2021/04/10 12:50:39;;;;;;;7.30;3.70;;;19.80;40.30;;;;;;4928446;29;20668;-92
2021/04/10 12:53:07;;;;;;;5.95;3.35;;;19.90;38.90;;;;;;4954134;28;20198;-93
2021/04/10 12:55:33;;;;;;;6.40;3.67;;;20.00;38.40;;;;;;4954694;28;20195;-94
2021/04/10 12:57:59;;;;;;;5.72;3.53;;;20.30;40.50;;;;;;4954745;28;20214;-94
2021/04/10 13:00:24;;;;;;;9.32;3.60;;;20.40;38.50;;;;;;4954772;28;20197;-94